UAAH

Details ICAO UAAH
Name BALKHASH
Region Kazakhstan and Kyrgyzstan
Timezone Asia/Almaty (UTC+6.0)
Plans Departing 7
Arriving 7
Stats Elevation 1,446 ft / 441 m (AMSL)
Location 46.894188° 75.004754°
Runways 1
Magnetic Variation 7.006° E
Sunrise 2017-12-11 02:36:32 UTC / 2017-12-11 08:36:32 Local
Sunset 2017-12-11 11:12:40 UTC / 2017-12-11 17:12:40 Local
Advertisement - Login to hide

Runways

ID Width Length Bearing (true) Bearing (mag) Surface Threshold Offset Overrun Length
05 131 ft / 40 m 8,218 ft / 2,505 m 52.40° 45.39° Concrete 0 ft / 0 m 0 ft / 0 m
23 131 ft / 40 m 8,218 ft / 2,505 m 232.42° 225.41° Concrete 0 ft / 0 m 0 ft / 0 m

Map

Weather


0- 5 10 15 20 25 30 35+ Temperature / ° C

Clouds and Precipitation
Forecast for 2017-12-11 12:00 UTC. Updated an hour ago

Ground ~20,000 ft ~40,000 ft Winds

METAR

UAAH 110800Z 28004MPS CAVOK M10/M13 Q1026 R23/790328 NOSIG RMK QFE730/0973

TAF

Not found

Frequencies

Tower 128.00 MHz TWR
Warning: Do not use this data for real-world aviation or navigation. No guarantee of current accuracy is given.